createdAt,value
2022-08-17T00:06:53.779Z,100.00
2022-08-17T00:22:31.422Z,100.00
2022-08-17T00:37:23.886Z,100.00
2022-08-17T00:52:32.681Z,100.00
2022-08-17T01:07:37.963Z,100.00
2022-08-17T01:22:41.942Z,100.00
2022-08-17T01:37:45.514Z,100.00
2022-08-17T01:52:51.915Z,100.00
2022-08-17T02:07:59.521Z,100.00
2022-08-17T02:23:05.342Z,100.00
2022-08-17T02:38:11.376Z,100.00
2022-08-17T02:53:14.475Z,100.00
2022-08-17T03:08:19.864Z,100.00
2022-08-17T03:23:25.766Z,100.00
2022-08-17T03:38:29.221Z,100.00
2022-08-17T03:54:12.921Z,100.00
2022-08-17T04:09:15.961Z,100.00
2022-08-17T04:24:19.604Z,100.00
2022-08-17T04:39:25.501Z,100.00
2022-08-17T04:54:28.666Z,100.00
2022-08-17T05:09:33.310Z,100.00
2022-08-17T05:24:40.691Z,100.00
2022-08-17T05:39:47.062Z,100.00
2022-08-17T05:55:07.945Z,100.00
2022-08-17T06:10:18.556Z,100.00
2022-08-17T06:25:46.510Z,100.00
2022-08-17T06:40:59.459Z,100.00
2022-08-17T06:56:09.349Z,100.00
2022-08-17T07:11:21.234Z,99.29
2022-08-17T07:26:24.659Z,96.09
2022-08-17T07:41:57.536Z,91.72
2022-08-17T07:57:08.711Z,87.92
2022-08-17T08:12:28.955Z,82.19
2022-08-17T08:28:01.960Z,79.19
2022-08-17T08:43:37.234Z,74.22
2022-08-17T08:58:54.564Z,72.87
2022-08-17T09:14:21.886Z,68.87
2022-08-17T09:29:36.074Z,66.07
2022-08-17T09:45:27.816Z,64.96
2022-08-17T10:00:37.707Z,62.88
2022-08-17T10:15:44.431Z,61.82
2022-08-17T10:31:17.021Z,62.32
2022-08-17T10:46:44.428Z,58.84
2022-08-17T11:02:04.838Z,56.77
2022-08-17T11:17:46.566Z,55.85
